createdAt,value
2018-09-01T00:01:05.208Z,3.63
2018-09-01T00:03:36.120Z,3.67
2018-09-01T00:06:07.164Z,3.70
2018-09-01T00:08:37.352Z,3.37
2018-09-01T00:11:07.833Z,3.63
2018-09-01T00:13:38.994Z,3.50
2018-09-01T00:16:09.842Z,3.70
2018-09-01T00:18:40.428Z,3.50
2018-09-01T00:21:10.678Z,3.30
2018-09-01T00:23:41.504Z,3.40
2018-09-01T00:26:12.074Z,3.20
2018-09-01T00:28:42.157Z,3.70
2018-09-01T00:31:12.304Z,3.50
2018-09-01T00:33:43.290Z,3.20
2018-09-01T00:36:14.306Z,3.40
2018-09-01T00:38:49.659Z,3.50
2018-09-01T00:41:20.506Z,3.17
2018-09-01T00:43:51.690Z,3.43
2018-09-01T00:46:21.977Z,3.27
2018-09-01T00:48:52.366Z,3.60
2018-09-01T00:51:23.832Z,3.27
2018-09-01T00:53:54.596Z,2.80
2018-09-01T00:56:25.052Z,3.43
2018-09-01T00:58:55.204Z,3.93
2018-09-01T01:01:26.006Z,2.73
2018-09-01T01:03:56.879Z,2.97
2018-09-01T01:06:27.018Z,2.87
2018-09-01T01:08:57.202Z,2.63
2018-09-01T01:11:28.172Z,2.77
2018-09-01T01:13:59.025Z,3.10
2018-09-01T01:16:29.267Z,2.93
2018-09-01T01:18:59.476Z,2.60
2018-09-01T01:21:30.991Z,2.80
2018-09-01T01:24:02.328Z,2.37
2018-09-01T01:26:32.813Z,2.70
2018-09-01T01:29:03.015Z,2.43
2018-09-01T01:31:33.870Z,3.00
2018-09-01T01:34:05.128Z,2.73
2018-09-01T01:36:35.667Z,3.00
2018-09-01T01:39:07.530Z,2.70
2018-09-01T01:41:38.622Z,2.80
2018-09-01T01:44:09.160Z,2.60
2018-09-01T01:46:39.416Z,2.50
2018-09-01T01:49:10.021Z,2.73
2018-09-01T01:51:41.762Z,2.70
2018-09-01T01:54:12.322Z,2.30
2018-09-01T01:56:42.595Z,2.83
2018-09-01T01:59:12.885Z,2.67
2018-09-01T02:01:43.725Z,2.90
2018-09-01T02:04:14.864Z,2.87
2018-09-01T02:06:45.054Z,2.47
2018-09-01T02:09:15.872Z,2.33
2018-09-01T02:11:46.863Z,2.60
2018-09-01T02:14:17.197Z,2.70
2018-09-01T02:16:47.321Z,2.37
2018-09-01T02:19:18.622Z,2.73
2018-09-01T02:21:50.182Z,2.37
2018-09-01T02:24:20.591Z,2.50
2018-09-01T02:26:50.873Z,2.53
2018-09-01T02:29:21.674Z,2.53
2018-09-01T02:31:52.618Z,2.40
2018-09-01T02:34:22.922Z,2.50
2018-09-01T02:36:53.118Z,2.53
2018-09-01T02:39:24.072Z,2.40
2018-09-01T02:41:55.116Z,2.53
2018-09-01T02:44:25.330Z,2.40
2018-09-01T02:46:55.700Z,2.20
2018-09-01T02:49:26.605Z,2.53
2018-09-01T02:51:57.714Z,2.63
2018-09-01T02:54:28.005Z,2.70
2018-09-01T02:56:58.336Z,2.40
2018-09-01T02:59:29.205Z,2.17
2018-09-01T03:02:00.006Z,2.47
2018-09-01T03:04:30.215Z,2.47
2018-09-01T03:07:01.491Z,2.37
2018-09-01T03:09:32.277Z,2.50
2018-09-01T03:12:03.180Z,2.70
2018-09-01T03:14:33.314Z,2.77
2018-09-01T03:17:03.526Z,2.97
2018-09-01T03:19:34.750Z,2.43
2018-09-01T03:22:05.940Z,2.63
2018-09-01T03:24:36.112Z,2.60
2018-09-01T03:27:13.914Z,3.10
2018-09-01T03:29:44.668Z,2.60
2018-09-01T03:32:15.776Z,2.67
2018-09-01T03:34:46.081Z,2.70
2018-09-01T03:37:16.972Z,2.27
2018-09-01T03:39:47.744Z,2.50
2018-09-01T03:42:18.123Z,2.70
2018-09-01T03:44:48.338Z,2.70
2018-09-01T03:47:19.351Z,2.20
2018-09-01T03:49:50.420Z,2.77
2018-09-01T03:52:20.661Z,2.53
2018-09-01T03:54:50.825Z,2.63
2018-09-01T03:57:21.892Z,2.73
2018-09-01T03:59:53.104Z,2.67
2018-09-01T04:02:23.560Z,2.50
2018-09-01T04:04:53.770Z,2.87
2018-09-01T04:07:24.658Z,2.87
2018-09-01T04:09:55.718Z,2.63
2018-09-01T04:12:26.174Z,2.40
2018-09-01T04:14:56.404Z,2.70
2018-09-01T04:17:27.496Z,2.80
2018-09-01T04:19:58.513Z,3.13
2018-09-01T04:22:28.953Z,3.20
2018-09-01T04:24:59.164Z,3.57
2018-09-01T04:27:30.095Z,3.00
2018-09-01T04:30:00.895Z,3.00
2018-09-01T04:32:31.351Z,3.43
2018-09-01T04:35:01.800Z,2.90
2018-09-01T04:37:32.902Z,3.30
2018-09-01T04:40:03.858Z,3.60
2018-09-01T04:42:34.059Z,3.43
2018-09-01T04:45:04.285Z,3.00
2018-09-01T04:47:35.413Z,3.23
2018-09-01T04:50:06.408Z,3.43
2018-09-01T04:52:36.649Z,3.40
2018-09-01T04:55:06.997Z,3.33
2018-09-01T04:57:38.035Z,3.87
2018-09-01T05:00:09.555Z,3.87
2018-09-01T05:02:39.795Z,3.63
2018-09-01T05:05:09.971Z,3.77
2018-09-01T05:07:41.025Z,3.73
2018-09-01T05:10:11.673Z,3.27
2018-09-01T05:12:41.999Z,3.80
2018-09-01T05:15:12.401Z,3.67
2018-09-01T05:17:43.293Z,3.93
2018-09-01T05:20:13.752Z,3.53
2018-09-01T05:22:43.960Z,3.87
2018-09-01T05:25:14.393Z,3.43
2018-09-01T05:27:45.379Z,3.50
2018-09-01T05:30:16.156Z,4.47
2018-09-01T05:32:46.478Z,3.63
2018-09-01T05:35:17.733Z,3.80
2018-09-01T05:37:48.689Z,3.50
2018-09-01T05:40:18.983Z,3.87
2018-09-01T05:42:52.194Z,4.20
2018-09-01T05:45:23.169Z,4.07
2018-09-01T05:47:55.058Z,3.50
2018-09-01T05:50:25.337Z,4.13
2018-09-01T05:52:55.545Z,4.13
2018-09-01T05:55:26.513Z,4.07
2018-09-01T05:57:57.504Z,4.27
2018-09-01T06:00:27.156Z,3.40
2018-09-01T06:02:57.555Z,3.70
2018-09-01T06:05:28.590Z,3.67
2018-09-01T06:07:59.511Z,3.70
2018-09-01T06:10:30.017Z,3.43
2018-09-01T06:13:01.666Z,3.87
2018-09-01T06:15:32.631Z,4.30
2018-09-01T06:18:03.801Z,4.40
2018-09-01T06:20:34.402Z,3.63
2018-09-01T06:23:04.938Z,3.53
2018-09-01T06:25:35.943Z,3.57
2018-09-01T06:28:12.501Z,4.27
2018-09-01T06:30:47.110Z,4.40
2018-09-01T06:33:19.055Z,3.93
2018-09-01T06:35:50.721Z,3.93
2018-09-01T06:38:22.203Z,4.33
2018-09-01T06:40:52.771Z,3.80
2018-09-01T06:43:23.904Z,2.70
2018-09-01T06:45:55.055Z,2.83
2018-09-01T06:48:25.869Z,2.23
2018-09-01T06:50:57.401Z,2.13
2018-09-01T06:53:29.192Z,2.07
2018-09-01T06:56:00.420Z,1.83
2018-09-01T06:58:30.810Z,2.03
2018-09-01T07:01:01.244Z,2.40
2018-09-01T07:03:32.461Z,2.20
2018-09-01T07:06:03.470Z,2.00
2018-09-01T07:08:33.623Z,2.13
2018-09-01T07:11:04.265Z,2.20
2018-09-01T07:13:35.749Z,2.13
2018-09-01T07:16:06.851Z,2.20
2018-09-01T07:18:37.294Z,2.40
2018-09-01T07:21:07.725Z,2.20
2018-09-01T07:23:39.659Z,2.17
2018-09-01T07:26:10.677Z,2.10
2018-09-01T07:28:41.207Z,2.47
2018-09-01T07:31:11.922Z,2.10
2018-09-01T07:33:43.379Z,2.37
2018-09-01T07:36:15.817Z,2.50
2018-09-01T07:38:46.166Z,2.27
2018-09-01T07:41:17.405Z,2.07
2018-09-01T07:43:48.635Z,2.80
2018-09-01T07:46:20.719Z,2.30
2018-09-01T07:48:51.254Z,2.40
2018-09-01T07:51:22.287Z,2.63
2018-09-01T07:53:53.469Z,2.30
2018-09-01T07:56:23.875Z,2.30
2018-09-01T07:58:54.832Z,3.03
2018-09-01T08:01:25.076Z,2.00
2018-09-01T08:03:56.157Z,3.53
2018-09-01T08:06:26.630Z,2.40
2018-09-01T08:08:57.143Z,2.73
2018-09-01T08:11:28.167Z,2.13
2018-09-01T08:14:00.187Z,3.17
2018-09-01T08:16:30.569Z,2.73
2018-09-01T08:19:01.055Z,2.20
2018-09-01T08:21:36.829Z,2.63
2018-09-01T08:24:08.142Z,2.30
2018-09-01T08:26:39.767Z,2.70
2018-09-01T08:29:10.141Z,2.40
2018-09-01T08:31:41.382Z,2.70
2018-09-01T08:34:12.075Z,2.50
2018-09-01T08:36:43.632Z,2.53
2018-09-01T08:39:14.545Z,2.70
2018-09-01T08:41:45.781Z,2.23
2018-09-01T08:44:16.814Z,2.47
2018-09-01T08:46:47.532Z,2.67
2018-09-01T08:49:19.284Z,2.58
2018-09-01T08:51:51.019Z,2.33
2018-09-01T08:54:21.503Z,2.10
2018-09-01T08:56:53.527Z,2.63
2018-09-01T08:59:24.713Z,2.70
2018-09-01T09:01:56.465Z,2.70
2018-09-01T09:04:28.078Z,2.33
2018-09-01T09:07:02.361Z,2.70
2018-09-01T09:09:34.697Z,2.60
2018-09-01T09:12:09.571Z,2.73
2018-09-01T09:14:41.350Z,2.50
2018-09-01T09:17:11.878Z,2.60
2018-09-01T09:19:43.126Z,2.80
2018-09-01T09:22:14.237Z,2.90
2018-09-01T09:24:44.765Z,2.70
2018-09-01T09:27:19.268Z,3.00
2018-09-01T09:29:50.525Z,3.30
2018-09-01T09:32:20.933Z,2.20
2018-09-01T09:34:51.508Z,2.90
2018-09-01T09:37:22.828Z,2.83
2018-09-01T09:39:56.552Z,3.63
2018-09-01T09:42:27.789Z,3.03
2018-09-01T09:44:58.221Z,3.47
2018-09-01T09:47:29.360Z,3.03
2018-09-01T09:50:00.394Z,2.83
2018-09-01T09:52:32.140Z,3.20
2018-09-01T09:55:02.804Z,3.37
2018-09-01T09:57:33.854Z,2.80
2018-09-01T10:00:06.254Z,3.13
2018-09-01T10:02:36.600Z,3.23
2018-09-01T10:05:10.038Z,3.33
2018-09-01T10:07:42.430Z,2.80
2018-09-01T10:10:14.985Z,3.17
2018-09-01T10:12:45.323Z,3.00
2018-09-01T10:15:16.330Z,2.60
2018-09-01T10:17:47.357Z,2.50
2018-09-01T10:20:17.978Z,2.30
2018-09-01T10:22:48.435Z,2.30
2018-09-01T10:25:19.463Z,2.53
2018-09-01T10:27:50.420Z,2.83
2018-09-01T10:30:20.853Z,2.20
2018-09-01T10:32:51.960Z,3.43
2018-09-01T10:35:24.238Z,2.50
2018-09-01T10:37:55.277Z,2.70
2018-09-01T10:40:25.826Z,2.70
2018-09-01T10:42:56.508Z,2.23
2018-09-01T10:45:28.370Z,2.90
2018-09-01T10:47:59.935Z,2.80
2018-09-01T10:50:30.620Z,2.67
2018-09-01T10:53:01.492Z,2.47
2018-09-01T10:55:33.010Z,3.37
2018-09-01T10:58:04.654Z,2.67
2018-09-01T11:00:37.312Z,3.00
2018-09-01T11:03:09.610Z,2.83
2018-09-01T11:05:40.890Z,2.80
2018-09-01T11:08:11.678Z,2.27
2018-09-01T11:10:42.804Z,2.77
2018-09-01T11:13:13.203Z,2.60
2018-09-01T11:15:44.678Z,2.40
2018-09-01T11:18:15.148Z,2.33
2018-09-01T11:20:46.064Z,2.53
2018-09-01T11:23:17.376Z,2.73
2018-09-01T11:25:48.738Z,2.60
2018-09-01T11:28:20.286Z,2.60
2018-09-01T11:30:50.776Z,2.83
2018-09-01T11:33:21.958Z,2.30
2018-09-01T11:35:53.368Z,2.50
2018-09-01T11:38:23.870Z,3.20
2018-09-01T11:40:54.233Z,2.40
2018-09-01T11:43:25.197Z,2.43
2018-09-01T11:45:56.164Z,2.40
2018-09-01T11:48:26.340Z,3.20
2018-09-01T11:50:57.031Z,2.87
2018-09-01T11:53:28.806Z,2.70
2018-09-01T11:56:00.517Z,2.42
2018-09-01T11:58:30.978Z,2.40
2018-09-01T12:01:01.528Z,2.70
2018-09-01T12:03:32.588Z,2.30
2018-09-01T12:06:03.601Z,2.20
2018-09-01T12:08:34.168Z,2.30
2018-09-01T12:11:05.117Z,2.80
2018-09-01T12:13:36.148Z,2.80
2018-09-01T12:16:08.334Z,2.80
2018-09-01T12:18:39.418Z,2.67
2018-09-01T12:21:09.832Z,2.80
2018-09-01T12:23:41.420Z,2.73
2018-09-01T12:26:12.642Z,2.73
2018-09-01T12:28:44.086Z,2.53
2018-09-01T12:31:15.216Z,2.97
2018-09-01T12:33:46.278Z,3.50
2018-09-01T12:36:16.855Z,2.57
2018-09-01T12:38:47.300Z,3.00
2018-09-01T12:41:18.368Z,2.80
2018-09-01T12:43:49.385Z,3.20
2018-09-01T12:46:19.762Z,3.00
2018-09-01T12:48:50.147Z,3.30
2018-09-01T12:51:22.455Z,3.00
2018-09-01T12:53:54.570Z,3.23
2018-09-01T12:56:25.148Z,2.50
2018-09-01T12:58:56.539Z,3.80
2018-09-01T13:01:27.476Z,3.23
2018-09-01T13:04:00.647Z,3.30
2018-09-01T13:06:31.060Z,3.07
2018-09-01T13:09:01.302Z,4.03
2018-09-01T13:11:32.276Z,3.50
2018-09-01T13:14:03.639Z,3.30
2018-09-01T13:16:34.241Z,3.83
2018-09-01T13:19:04.822Z,4.27
2018-09-01T13:21:35.998Z,3.97
2018-09-01T13:24:07.231Z,4.50
2018-09-01T13:26:37.670Z,4.20
2018-09-01T13:29:07.932Z,3.97
2018-09-01T13:31:39.595Z,5.23
2018-09-01T13:34:10.402Z,5.50
2018-09-01T13:36:40.766Z,6.53
2018-09-01T13:39:11.063Z,5.77
2018-09-01T13:41:42.085Z,5.40
2018-09-01T13:44:13.675Z,5.20
2018-09-01T13:46:44.201Z,5.40
2018-09-01T13:49:14.658Z,5.20
2018-09-01T13:51:45.671Z,5.13
2018-09-01T13:54:15.979Z,4.73
2018-09-01T13:56:46.373Z,4.07
2018-09-01T13:59:17.397Z,4.10
2018-09-01T14:01:48.567Z,4.20
2018-09-01T14:04:18.989Z,5.40
2018-09-01T14:06:49.361Z,4.20
2018-09-01T14:09:20.370Z,4.20
2018-09-01T14:11:51.645Z,4.70
2018-09-01T14:14:23.278Z,4.50
2018-09-01T14:16:54.053Z,4.33
2018-09-01T14:19:25.217Z,4.93
2018-09-01T14:22:02.567Z,5.83
2018-09-01T14:24:33.015Z,6.00
2018-09-01T14:27:03.793Z,5.43
2018-09-01T14:29:34.948Z,5.40
2018-09-01T14:32:06.281Z,5.80
2018-09-01T14:34:36.680Z,6.20
2018-09-01T14:37:07.715Z,6.10
2018-09-01T14:39:38.926Z,6.73
2018-09-01T14:42:10.125Z,6.20
2018-09-01T14:44:40.414Z,5.63
2018-09-01T14:47:11.031Z,6.17
2018-09-01T14:49:42.284Z,6.40
2018-09-01T14:52:12.850Z,6.30
2018-09-01T14:54:44.418Z,6.80
2018-09-01T14:57:14.827Z,7.47
2018-09-01T14:59:46.452Z,6.63
2018-09-01T15:02:17.022Z,6.10
2018-09-01T15:04:48.577Z,5.93
2018-09-01T15:07:19.758Z,5.80
2018-09-01T15:09:50.851Z,6.43
2018-09-01T15:12:21.589Z,6.23
2018-09-01T15:14:53.255Z,6.23
2018-09-01T15:17:30.481Z,6.37
2018-09-01T15:20:01.627Z,6.27
2018-09-01T15:22:32.256Z,6.13
2018-09-01T15:25:02.839Z,6.30
2018-09-01T15:27:34.039Z,6.50
2018-09-01T15:30:05.141Z,6.63
2018-09-01T15:32:35.654Z,6.70
2018-09-01T15:35:06.607Z,6.43
2018-09-01T15:37:37.785Z,6.47
2018-09-01T15:40:09.025Z,7.00
2018-09-01T15:42:39.800Z,7.93
2018-09-01T15:45:10.256Z,7.20
2018-09-01T15:47:41.517Z,7.23
2018-09-01T15:50:12.217Z,7.93
2018-09-01T15:52:42.638Z,6.80
2018-09-01T15:55:13.037Z,6.73
2018-09-01T15:57:44.601Z,6.40
2018-09-01T16:00:15.150Z,5.57
2018-09-01T16:02:45.572Z,5.93
2018-09-01T16:05:16.875Z,6.40
2018-09-01T16:07:47.915Z,5.80
2018-09-01T16:10:18.272Z,6.30
2018-09-01T16:12:49.074Z,5.87
2018-09-01T16:15:21.497Z,6.40
2018-09-01T16:17:52.593Z,5.43
2018-09-01T16:20:22.875Z,5.67
2018-09-01T16:22:53.395Z,5.47
2018-09-01T16:25:24.429Z,5.67
2018-09-01T16:27:56.289Z,5.60
2018-09-01T16:30:27.200Z,5.93
2018-09-01T16:32:57.751Z,5.27
2018-09-01T16:35:28.857Z,5.93
2018-09-01T16:37:59.824Z,6.20
2018-09-01T16:40:30.341Z,6.00
2018-09-01T16:43:00.944Z,6.13
2018-09-01T16:45:31.870Z,5.87
2018-09-01T16:48:03.148Z,6.43
2018-09-01T16:50:33.440Z,6.83
2018-09-01T16:53:04.130Z,6.70
2018-09-01T16:55:36.022Z,7.33
2018-09-01T16:58:07.253Z,6.70
2018-09-01T17:00:37.731Z,6.80
2018-09-01T17:03:08.307Z,7.67
2018-09-01T17:05:39.286Z,6.73
2018-09-01T17:08:10.904Z,7.67
2018-09-01T17:10:41.243Z,7.47
2018-09-01T17:13:12.251Z,7.90
2018-09-01T17:15:43.247Z,7.53
2018-09-01T17:18:13.948Z,7.83
2018-09-01T17:20:45.668Z,8.27
2018-09-01T17:23:18.506Z,8.03
2018-09-01T17:25:49.746Z,12.07
2018-09-01T17:28:21.450Z,9.20
2018-09-01T17:30:51.983Z,13.57
2018-09-01T17:33:23.362Z,28.43
2018-09-01T17:35:54.945Z,12.47
2018-09-01T17:38:25.374Z,9.87
2018-09-01T17:40:57.337Z,17.80
2018-09-01T17:43:28.480Z,29.80
2018-09-01T17:45:59.440Z,13.50
2018-09-01T17:48:30.018Z,12.13
2018-09-01T17:51:00.888Z,11.77
2018-09-01T17:53:32.009Z,9.73
2018-09-01T17:56:03.255Z,8.40
2018-09-01T17:58:33.640Z,9.10
2018-09-01T18:01:04.161Z,9.80
2018-09-01T18:03:35.257Z,10.70
2018-09-01T18:06:07.371Z,9.90
2018-09-01T18:08:38.901Z,8.97
2018-09-01T18:11:11.141Z,9.13
2018-09-01T18:13:44.000Z,9.13
2018-09-01T18:16:15.117Z,10.03
2018-09-01T18:18:45.430Z,9.60
2018-09-01T18:21:15.893Z,9.33
2018-09-01T18:23:47.078Z,9.50
2018-09-01T18:26:17.518Z,9.20
2018-09-01T18:28:48.311Z,10.10
2018-09-01T18:31:19.457Z,9.80
2018-09-01T18:33:50.638Z,10.43
2018-09-01T18:36:20.955Z,9.80
2018-09-01T18:38:51.594Z,9.80
2018-09-01T18:41:23.250Z,8.73
2018-09-01T18:43:54.253Z,8.63
2018-09-01T18:46:24.800Z,7.57
2018-09-01T18:48:55.110Z,7.30
2018-09-01T18:51:26.530Z,7.10
2018-09-01T18:53:59.077Z,6.93
2018-09-01T18:56:29.793Z,6.60
2018-09-01T18:59:00.096Z,7.93
2018-09-01T19:01:31.537Z,7.50
2018-09-01T19:04:02.514Z,7.50
2018-09-01T19:06:32.716Z,6.90
2018-09-01T19:09:03.564Z,6.97
2018-09-01T19:11:34.676Z,6.73
2018-09-01T19:14:06.308Z,6.97
2018-09-01T19:16:36.517Z,7.30
2018-09-01T19:19:07.397Z,6.97
2018-09-01T19:21:38.387Z,7.13
2018-09-01T19:24:10.113Z,7.10
2018-09-01T19:26:41.369Z,8.00
2018-09-01T19:29:11.873Z,8.10
2018-09-01T19:31:43.883Z,7.67
2018-09-01T19:34:15.010Z,8.03
2018-09-01T19:36:45.308Z,7.80
2018-09-01T19:39:16.413Z,7.60
2018-09-01T19:41:47.421Z,8.00
2018-09-01T19:44:17.775Z,7.63
2018-09-01T19:46:49.804Z,7.50
2018-09-01T19:49:21.581Z,8.67
2018-09-01T19:51:52.634Z,7.70
2018-09-01T19:54:24.172Z,7.67
2018-09-01T19:56:54.557Z,7.67
2018-09-01T19:59:25.811Z,7.37
2018-09-01T20:01:56.995Z,8.10
2018-09-01T20:04:28.372Z,7.83
2018-09-01T20:06:58.813Z,7.80
2018-09-01T20:09:29.692Z,8.07
2018-09-01T20:12:01.575Z,8.43
2018-09-01T20:14:31.766Z,8.27
2018-09-01T20:17:02.217Z,8.97
2018-09-01T20:19:34.141Z,7.90
2018-09-01T20:22:05.041Z,7.30
2018-09-01T20:24:35.344Z,7.97
2018-09-01T20:27:05.648Z,8.47
2018-09-01T20:29:37.018Z,8.33
2018-09-01T20:32:08.088Z,9.07
2018-09-01T20:34:48.442Z,9.03
2018-09-01T20:37:21.518Z,9.67
2018-09-01T20:39:52.520Z,9.83
2018-09-01T20:42:22.586Z,9.43
2018-09-01T20:44:54.556Z,11.23
2018-09-01T20:47:25.613Z,10.70
2018-09-01T20:49:58.457Z,11.30
2018-09-01T20:52:28.981Z,10.17
2018-09-01T20:54:59.500Z,11.63
